sensor_id;sensor_type;location;lat;lon;timestamp;pressure;altitude;pressure_sealevel;temperature
79632;BMP280;69108;41.120;16.874;2024-01-30T00:01:57;103583.56;;;10.76
79632;BMP280;69108;41.120;16.874;2024-01-30T00:04:24;103582.31;;;10.73
79632;BMP280;69108;41.120;16.874;2024-01-30T00:06:52;103583.44;;;10.72
79632;BMP280;69108;41.120;16.874;2024-01-30T00:09:19;103581.81;;;10.68
79632;BMP280;69108;41.120;16.874;2024-01-30T00:11:46;103590.91;;;10.63
79632;BMP280;69108;41.120;16.874;2024-01-30T00:14:13;103579.66;;;10.61
79632;BMP280;69108;41.120;16.874;2024-01-30T00:16:40;103574.41;;;10.53
79632;BMP280;69108;41.120;16.874;2024-01-30T00:19:06;103583.16;;;10.62
79632;BMP280;69108;41.120;16.874;2024-01-30T00:21:33;103579.78;;;10.65
79632;BMP280;69108;41.120;16.874;2024-01-30T00:24:02;103579.41;;;10.66
79632;BMP280;69108;41.120;16.874;2024-01-30T00:26:29;103579.84;;;10.68
79632;BMP280;69108;41.120;16.874;2024-01-30T00:28:56;103573.94;;;10.63
79632;BMP280;69108;41.120;16.874;2024-01-30T00:31:22;103577.66;;;10.58
79632;BMP280;69108;41.120;16.874;2024-01-30T00:33:49;103586.66;;;10.62
79632;BMP280;69108;41.120;16.874;2024-01-30T00:36:16;103583.59;;;10.64
79632;BMP280;69108;41.120;16.874;2024-01-30T00:38:43;103592.84;;;10.63
79632;BMP280;69108;41.120;16.874;2024-01-30T00:41:11;103585.78;;;10.58
79632;BMP280;69108;41.120;16.874;2024-01-30T00:43:37;103584.91;;;10.54
79632;BMP280;69108;41.120;16.874;2024-01-30T00:46:04;103588.19;;;10.48
79632;BMP280;69108;41.120;16.874;2024-01-30T00:48:30;103586.59;;;10.47
79632;BMP280;69108;41.120;16.874;2024-01-30T00:50:57;103588.47;;;10.43
79632;BMP280;69108;41.120;16.874;2024-01-30T00:53:24;103579.09;;;10.40
79632;BMP280;69108;41.120;16.874;2024-01-30T00:55:50;103581.69;;;10.37
79632;BMP280;69108;41.120;16.874;2024-01-30T00:58:19;103586.03;;;10.26
79632;BMP280;69108;41.120;16.874;2024-01-30T01:00:45;103584.53;;;10.00
79632;BMP280;69108;41.120;16.874;2024-01-30T01:03:12;103588.50;;;9.91
79632;BMP280;69108;41.120;16.874;2024-01-30T01:05:39;103584.66;;;9.92
79632;BMP280;69108;41.120;16.874;2024-01-30T01:08:06;103578.81;;;9.90
79632;BMP280;69108;41.120;16.874;2024-01-30T01:10:34;103582.53;;;9.85
79632;BMP280;69108;41.120;16.874;2024-01-30T01:13:01;103584.09;;;9.86
79632;BMP280;69108;41.120;16.874;2024-01-30T01:15:29;103574.00;;;9.83
79632;BMP280;69108;41.120;16.874;2024-01-30T01:17:56;103571.50;;;9.78
79632;BMP280;69108;41.120;16.874;2024-01-30T01:20:22;103576.50;;;9.76
79632;BMP280;69108;41.120;16.874;2024-01-30T01:22:49;103572.56;;;9.74
79632;BMP280;69108;41.120;16.874;2024-01-30T01:25:18;103574.03;;;9.71
79632;BMP280;69108;41.120;16.874;2024-01-30T01:27:45;103578.53;;;9.67
79632;BMP280;69108;41.120;16.874;2024-01-30T01:30:17;103572.25;;;9.63
79632;BMP280;69108;41.120;16.874;2024-01-30T01:32:48;103565.25;;;9.62
79632;BMP280;69108;41.120;16.874;2024-01-30T01:35:20;103570.66;;;9.62
79632;BMP280;69108;41.120;16.874;2024-01-30T01:37:48;103570.56;;;9.59
79632;BMP280;69108;41.120;16.874;2024-01-30T01:40:20;103566.25;;;9.58
79632;BMP280;69108;41.120;16.874;2024-01-30T01:42:47;103563.00;;;9.52
79632;BMP280;69108;41.120;16.874;2024-01-30T01:45:14;103561.88;;;9.53
79632;BMP280;69108;41.120;16.874;2024-01-30T01:47:41;103555.59;;;9.49
79632;BMP280;69108;41.120;16.874;2024-01-30T01:50:09;103555.59;;;9.49
79632;BMP280;69108;41.120;16.874;2024-01-30T01:52:36;103553.59;;;9.46
79632;BMP280;69108;41.120;16.874;2024-01-30T01:55:04;103551.09;;;9.41
79632;BMP280;69108;41.120;16.874;2024-01-30T01:57:33;103549.06;;;9.38
79632;BMP280;69108;41.120;16.874;2024-01-30T01:59:59;103549.75;;;9.35
79632;BMP280;69108;41.120;16.874;2024-01-30T02:02:30;103545.13;;;9.36
79632;BMP280;69108;41.120;16.874;2024-01-30T02:04:57;103548.97;;;9.35
79632;BMP280;69108;41.120;16.874;2024-01-30T02:07:26;103544.28;;;9.32
79632;BMP280;69108;41.120;16.874;2024-01-30T02:09:53;103546.50;;;9.30
79632;BMP280;69108;41.120;16.874;2024-01-30T02:12:20;103548.44;;;9.29
79632;BMP280;69108;41.120;16.874;2024-01-30T02:14:48;103550.31;;;9.29
79632;BMP280;69108;41.120;16.874;2024-01-30T02:17:15;103544.94;;;9.29
79632;BMP280;69108;41.120;16.874;2024-01-30T02:19:42;103551.13;;;9.29
79632;BMP280;69108;41.120;16.874;2024-01-30T02:22:10;103539.41;;;9.25
79632;BMP280;69108;41.120;16.874;2024-01-30T02:24:37;103549.78;;;9.23
79632;BMP280;69108;41.120;16.874;2024-01-30T02:27:03;103547.41;;;9.21
79632;BMP280;69108;41.120;16.874;2024-01-30T02:29:30;103548.41;;;9.17
79632;BMP280;69108;41.120;16.874;2024-01-30T02:31:56;103548.72;;;9.15
79632;BMP280;69108;41.120;16.874;2024-01-30T02:34:24;103548.31;;;9.13
79632;BMP280;69108;41.120;16.874;2024-01-30T02:36:51;103541.97;;;9.09
79632;BMP280;69108;41.120;16.874;2024-01-30T02:39:19;103545.03;;;9.08
79632;BMP280;69108;41.120;16.874;2024-01-30T02:41:46;103540.75;;;9.07
79632;BMP280;69108;41.120;16.874;2024-01-30T02:44:13;103532.66;;;9.07
79632;BMP280;69108;41.120;16.874;2024-01-30T02:46:39;103538.03;;;9.07
79632;BMP280;69108;41.120;16.874;2024-01-30T02:49:06;103531.09;;;9.06
79632;BMP280;69108;41.120;16.874;2024-01-30T02:51:33;103535.69;;;9.05
79632;BMP280;69108;41.120;16.874;2024-01-30T02:54:00;103547.28;;;9.06
79632;BMP280;69108;41.120;16.874;2024-01-30T02:56:28;103529.94;;;9.07
79632;BMP280;69108;41.120;16.874;2024-01-30T02:58:55;103526.16;;;9.08
79632;BMP280;69108;41.120;16.874;2024-01-30T03:01:21;103531.19;;;9.09
79632;BMP280;69108;41.120;16.874;2024-01-30T03:03:49;103528.19;;;9.11
79632;BMP280;69108;41.120;16.874;2024-01-30T03:06:16;103523.59;;;9.11
79632;BMP280;69108;41.120;16.874;2024-01-30T03:08:45;103526.28;;;9.11
79632;BMP280;69108;41.120;16.874;2024-01-30T03:11:12;103522.78;;;9.11
79632;BMP280;69108;41.120;16.874;2024-01-30T03:13:40;103525.81;;;9.09
79632;BMP280;69108;41.120;16.874;2024-01-30T03:16:08;103519.50;;;9.05
79632;BMP280;69108;41.120;16.874;2024-01-30T03:18:34;103526.81;;;9.05
79632;BMP280;69108;41.120;16.874;2024-01-30T03:21:01;103526.38;;;9.03
79632;BMP280;69108;41.120;16.874;2024-01-30T03:23:28;103528.59;;;9.01
79632;BMP280;69108;41.120;16.874;2024-01-30T03:25:55;103524.00;;;9.01
79632;BMP280;69108;41.120;16.874;2024-01-30T03:28:21;103517.81;;;9.01
79632;BMP280;69108;41.120;16.874;2024-01-30T03:30:50;103523.22;;;9.01
79632;BMP280;69108;41.120;16.874;2024-01-30T03:33:16;103523.91;;;8.98
79632;BMP280;69108;41.120;16.874;2024-01-30T03:35:43;103516.13;;;8.96
79632;BMP280;69108;41.120;16.874;2024-01-30T03:38:10;103511.13;;;8.95
79632;BMP280;69108;41.120;16.874;2024-01-30T03:40:37;103517.16;;;8.92
79632;BMP280;69108;41.120;16.874;2024-01-30T03:43:03;103518.63;;;8.89
79632;BMP280;69108;41.120;16.874;2024-01-30T03:45:31;103518.94;;;8.88
79632;BMP280;69108;41.120;16.874;2024-01-30T03:47:59;103515.78;;;8.86
79632;BMP280;69108;41.120;16.874;2024-01-30T03:50:26;103516.13;;;8.84
79632;BMP280;69108;41.120;16.874;2024-01-30T03:52:53;103519.97;;;8.83
79632;BMP280;69108;41.120;16.874;2024-01-30T03:55:20;103519.16;;;8.83
79632;BMP280;69108;41.120;16.874;2024-01-30T03:57:46;103514.44;;;8.80
79632;BMP280;69108;41.120;16.874;2024-01-30T04:00:14;103510.16;;;8.79
79632;BMP280;69108;41.120;16.874;2024-01-30T04:02:41;103507.00;;;8.77
79632;BMP280;69108;41.120;16.874;2024-01-30T04:05:09;103502.41;;;8.77
79632;BMP280;69108;41.120;16.874;2024-01-30T04:07:36;103516.69;;;8.78
79632;BMP280;69108;41.120;16.874;2024-01-30T04:10:03;103510.50;;;8.77
79632;BMP280;69108;41.120;16.874;2024-01-30T04:12:31;103511.50;;;8.73
79632;BMP280;69108;41.120;16.874;2024-01-30T04:14:57;103511.84;;;8.71
79632;BMP280;69108;41.120;16.874;2024-01-30T04:17:24;103512.94;;;8.70
79632;BMP280;69108;41.120;16.874;2024-01-30T04:19:51;103514.41;;;8.68
79632;BMP280;69108;41.120;16.874;2024-01-30T04:22:19;103513.97;;;8.66
79632;BMP280;69108;41.120;16.874;2024-01-30T04:24:46;103518.91;;;8.64
79632;BMP280;69108;41.120;16.874;2024-01-30T04:27:12;103519.22;;;8.62
79632;BMP280;69108;41.120;16.874;2024-01-30T04:29:39;103515.41;;;8.63
79632;BMP280;69108;41.120;16.874;2024-01-30T04:32:06;103511.47;;;8.61
79632;BMP280;69108;41.120;16.874;2024-01-30T04:34:33;103518.44;;;8.62
79632;BMP280;69108;41.120;16.874;2024-01-30T04:37:00;103514.63;;;8.63
79632;BMP280;69108;41.120;16.874;2024-01-30T04:39:28;103522.72;;;8.63
79632;BMP280;69108;41.120;16.874;2024-01-30T04:41:55;103525.06;;;8.64
79632;BMP280;69108;41.120;16.874;2024-01-30T04:44:21;103526.19;;;8.63
79632;BMP280;69108;41.120;16.874;2024-01-30T04:46:48;103522.38;;;8.64
79632;BMP280;69108;41.120;16.874;2024-01-30T04:49:15;103525.41;;;8.63
79632;BMP280;69108;41.120;16.874;2024-01-30T04:51:41;103527.31;;;8.62
79632;BMP280;69108;41.120;16.874;2024-01-30T04:54:08;103528.75;;;8.60
79632;BMP280;69108;41.120;16.874;2024-01-30T04:56:36;103537.16;;;8.58
79632;BMP280;69108;41.120;16.874;2024-01-30T04:59:04;103535.16;;;8.55
79632;BMP280;69108;41.120;16.874;2024-01-30T05:01:31;103542.44;;;8.55
79632;BMP280;69108;41.120;16.874;2024-01-30T05:03:58;103546.91;;;8.51
79632;BMP280;69108;41.120;16.874;2024-01-30T05:06:25;103554.78;;;8.56
79632;BMP280;69108;41.120;16.874;2024-01-30T05:08:52;103552.19;;;8.59
79632;BMP280;69108;41.120;16.874;2024-01-30T05:11:19;103556.94;;;8.62
79632;BMP280;69108;41.120;16.874;2024-01-30T05:13:47;103555.50;;;8.65
79632;BMP280;69108;41.120;16.874;2024-01-30T05:16:14;103562.47;;;8.66
79632;BMP280;69108;41.120;16.874;2024-01-30T05:18:40;103562.09;;;8.67
79632;BMP280;69108;41.120;16.874;2024-01-30T05:21:07;103574.13;;;8.70
79632;BMP280;69108;41.120;16.874;2024-01-30T05:23:34;103566.03;;;8.70
79632;BMP280;69108;41.120;16.874;2024-01-30T05:26:01;103566.53;;;8.72
79632;BMP280;69108;41.120;16.874;2024-01-30T05:28:28;103554.28;;;8.74
79632;BMP280;69108;41.120;16.874;2024-01-30T05:30:57;103560.47;;;8.75
79632;BMP280;69108;41.120;16.874;2024-01-30T05:33:24;103570.13;;;8.76
79632;BMP280;69108;41.120;16.874;2024-01-30T05:35:51;103571.69;;;8.77
79632;BMP280;69108;41.120;16.874;2024-01-30T05:38:19;103575.16;;;8.77
79632;BMP280;69108;41.120;16.874;2024-01-30T05:40:46;103569.22;;;8.84
79632;BMP280;69108;41.120;16.874;2024-01-30T05:43:13;103574.63;;;8.84
79632;BMP280;69108;41.120;16.874;2024-01-30T05:45:39;103584.28;;;8.85
79632;BMP280;69108;41.120;16.874;2024-01-30T05:48:08;103573.53;;;8.85
79632;BMP280;69108;41.120;16.874;2024-01-30T05:50:34;103576.63;;;8.87
79632;BMP280;69108;41.120;16.874;2024-01-30T05:53:01;103583.31;;;8.89
79632;BMP280;69108;41.120;16.874;2024-01-30T05:55:28;103578.22;;;8.88
79632;BMP280;69108;41.120;16.874;2024-01-30T05:57:54;103587.41;;;8.87
79632;BMP280;69108;41.120;16.874;2024-01-30T06:00:21;103575.88;;;8.86
79632;BMP280;69108;41.120;16.874;2024-01-30T06:02:48;103582.72;;;8.84
79632;BMP280;69108;41.120;16.874;2024-01-30T06:05:16;103583.41;;;8.81
79632;BMP280;69108;41.120;16.874;2024-01-30T06:07:43;103583.41;;;8.81
79632;BMP280;69108;41.120;16.874;2024-01-30T06:10:09;103591.13;;;8.82
79632;BMP280;69108;41.120;16.874;2024-01-30T06:12:36;103595.41;;;8.83
79632;BMP280;69108;41.120;16.874;2024-01-30T06:15:04;103591.59;;;8.84
79632;BMP280;69108;41.120;16.874;2024-01-30T06:17:32;103591.59;;;8.84
79632;BMP280;69108;41.120;16.874;2024-01-30T06:19:58;103602.03;;;8.86
79632;BMP280;69108;41.120;16.874;2024-01-30T06:22:27;103604.06;;;8.89
79632;BMP280;69108;41.120;16.874;2024-01-30T06:24:53;103601.47;;;8.92
79632;BMP280;69108;41.120;16.874;2024-01-30T06:27:20;103609.25;;;8.94
79632;BMP280;69108;41.120;16.874;2024-01-30T06:29:47;103611.59;;;8.95
79632;BMP280;69108;41.120;16.874;2024-01-30T06:32:14;103608.16;;;8.95
79632;BMP280;69108;41.120;16.874;2024-01-30T06:34:41;103610.06;;;8.94
79632;BMP280;69108;41.120;16.874;2024-01-30T06:37:09;103616.66;;;8.97
79632;BMP280;69108;41.120;16.874;2024-01-30T06:39:37;103617.44;;;8.97
79632;BMP280;69108;41.120;16.874;2024-01-30T06:42:04;103622.19;;;9.00
79632;BMP280;69108;41.120;16.874;2024-01-30T06:44:31;103625.78;;;9.04
79632;BMP280;69108;41.120;16.874;2024-01-30T06:46:58;103630.50;;;9.07
79632;BMP280;69108;41.120;16.874;2024-01-30T06:49:24;103627.50;;;9.09
79632;BMP280;69108;41.120;16.874;2024-01-30T06:51:52;103626.16;;;9.15
79632;BMP280;69108;41.120;16.874;2024-01-30T06:54:19;103638.94;;;9.18
79632;BMP280;69108;41.120;16.874;2024-01-30T06:56:47;103618.06;;;9.15
79632;BMP280;69108;41.120;16.874;2024-01-30T06:59:13;103637.50;;;9.33
79632;BMP280;69108;41.120;16.874;2024-01-30T07:01:40;103637.78;;;9.40
79632;BMP280;69108;41.120;16.874;2024-01-30T07:04:07;103639.56;;;9.48
79632;BMP280;69108;41.120;16.874;2024-01-30T07:06:34;103638.66;;;9.56
79632;BMP280;69108;41.120;16.874;2024-01-30T07:09:00;103645.09;;;9.63
79632;BMP280;69108;41.120;16.874;2024-01-30T07:11:28;103639.91;;;9.70
79632;BMP280;69108;41.120;16.874;2024-01-30T07:13:56;103640.03;;;9.74
79632;BMP280;69108;41.120;16.874;2024-01-30T07:16:24;103648.47;;;9.84
79632;BMP280;69108;41.120;16.874;2024-01-30T07:18:50;103644.16;;;9.95
79632;BMP280;69108;41.120;16.874;2024-01-30T07:21:17;103650.47;;;9.99
79632;BMP280;69108;41.120;16.874;2024-01-30T07:23:44;103651.31;;;10.03
79632;BMP280;69108;41.120;16.874;2024-01-30T07:26:11;103646.84;;;10.08
79632;BMP280;69108;41.120;16.874;2024-01-30T07:28:37;103657.53;;;10.16
79632;BMP280;69108;41.120;16.874;2024-01-30T07:31:05;103659.19;;;10.21
79632;BMP280;69108;41.120;16.874;2024-01-30T07:33:32;103659.66;;;10.23
79632;BMP280;69108;41.120;16.874;2024-01-30T07:35:59;103667.41;;;10.24
79632;BMP280;69108;41.120;16.874;2024-01-30T07:38:25;103668.41;;;10.32
79632;BMP280;69108;41.120;16.874;2024-01-30T07:40:52;103671.31;;;10.39
79632;BMP280;69108;41.120;16.874;2024-01-30T07:43:19;103669.59;;;10.46
79632;BMP280;69108;41.120;16.874;2024-01-30T07:45:46;103666.28;;;10.53
79632;BMP280;69108;41.120;16.874;2024-01-30T07:48:14;103678.78;;;10.57
79632;BMP280;69108;41.120;16.874;2024-01-30T07:50:41;103673.94;;;10.63
79632;BMP280;69108;41.120;16.874;2024-01-30T07:53:08;103676.72;;;10.66
79632;BMP280;69108;41.120;16.874;2024-01-30T07:55:35;103672.91;;;10.67
79632;BMP280;69108;41.120;16.874;2024-01-30T07:58:02;103671.69;;;10.65
79632;BMP280;69108;41.120;16.874;2024-01-30T08:00:30;103667.75;;;10.62
79632;BMP280;69108;41.120;16.874;2024-01-30T08:02:57;103681.03;;;10.67
79632;BMP280;69108;41.120;16.874;2024-01-30T08:05:26;103663.44;;;10.61
79632;BMP280;69108;41.120;16.874;2024-01-30T08:07:53;103681.56;;;10.73
79632;BMP280;69108;41.120;16.874;2024-01-30T08:10:20;103679.38;;;10.78
79632;BMP280;69108;41.120;16.874;2024-01-30T08:12:47;103679.50;;;10.82
79632;BMP280;69108;41.120;16.874;2024-01-30T08:15:14;103680.13;;;10.91
79632;BMP280;69108;41.120;16.874;2024-01-30T08:17:42;103670.97;;;10.96
79632;BMP280;69108;41.120;16.874;2024-01-30T08:20:08;103685.63;;;11.10
79632;BMP280;69108;41.120;16.874;2024-01-30T08:22:39;103687.31;;;10.99
79632;BMP280;69108;41.120;16.874;2024-01-30T08:25:07;103682.75;;;11.03
79632;BMP280;69108;41.120;16.874;2024-01-30T08:27:35;103690.09;;;11.03
79632;BMP280;69108;41.120;16.874;2024-01-30T08:30:05;103681.19;;;11.02
79632;BMP280;69108;41.120;16.874;2024-01-30T08:32:32;103694.88;;;11.09
79632;BMP280;69108;41.120;16.874;2024-01-30T08:34:59;103687.75;;;11.17
79632;BMP280;69108;41.120;16.874;2024-01-30T08:37:29;103686.38;;;11.23
79632;BMP280;69108;41.120;16.874;2024-01-30T08:39:57;103697.22;;;11.23
79632;BMP280;69108;41.120;16.874;2024-01-30T08:42:24;103693.16;;;11.17
79632;BMP280;69108;41.120;16.874;2024-01-30T08:44:51;103699.59;;;11.12
79632;BMP280;69108;41.120;16.874;2024-01-30T08:47:18;103689.81;;;11.08
79632;BMP280;69108;41.120;16.874;2024-01-30T08:49:45;103704.31;;;11.00
79632;BMP280;69108;41.120;16.874;2024-01-30T08:52:12;103696.94;;;11.00
79632;BMP280;69108;41.120;16.874;2024-01-30T08:54:39;103693.91;;;11.02
79632;BMP280;69108;41.120;16.874;2024-01-30T08:57:07;103694.63;;;10.99
79632;BMP280;69108;41.120;16.874;2024-01-30T08:59:33;103703.84;;;10.98
79632;BMP280;69108;41.120;16.874;2024-01-30T09:02:00;103700.81;;;10.99
79632;BMP280;69108;41.120;16.874;2024-01-30T09:04:26;103704.31;;;11.00
79632;BMP280;69108;41.120;16.874;2024-01-30T09:06:53;103704.84;;;11.05
79632;BMP280;69108;41.120;16.874;2024-01-30T09:09:20;103699.88;;;11.07
79632;BMP280;69108;41.120;16.874;2024-01-30T09:11:47;103698.50;;;11.13
79632;BMP280;69108;41.120;16.874;2024-01-30T09:14:15;103693.59;;;11.19
79632;BMP280;69108;41.120;16.874;2024-01-30T09:16:42;103695.94;;;11.20
79632;BMP280;69108;41.120;16.874;2024-01-30T09:19:09;103699.97;;;11.26
79632;BMP280;69108;41.120;16.874;2024-01-30T09:21:36;103693.16;;;11.32
79632;BMP280;69108;41.120;16.874;2024-01-30T09:24:03;103701.38;;;11.36
79632;BMP280;69108;41.120;16.874;2024-01-30T09:26:30;103698.31;;;11.37
79632;BMP280;69108;41.120;16.874;2024-01-30T09:28:57;103695.97;;;11.36
79632;BMP280;69108;41.120;16.874;2024-01-30T09:31:25;103695.25;;;11.39
79632;BMP280;69108;41.120;16.874;2024-01-30T09:33:52;103700.78;;;11.42
79632;BMP280;69108;41.120;16.874;2024-01-30T09:36:19;103698.22;;;11.49
79632;BMP280;69108;41.120;16.874;2024-01-30T09:38:46;103702.25;;;11.55
79632;BMP280;69108;41.120;16.874;2024-01-30T09:41:13;103701.19;;;11.76
79632;BMP280;69108;41.120;16.874;2024-01-30T09:43:41;103702.03;;;11.95
79632;BMP280;69108;41.120;16.874;2024-01-30T09:46:14;103703.13;;;12.10
79632;BMP280;69108;41.120;16.874;2024-01-30T09:48:43;103695.56;;;12.19
79632;BMP280;69108;41.120;16.874;2024-01-30T09:51:10;103707.50;;;12.53
79632;BMP280;69108;41.120;16.874;2024-01-30T09:53:37;103700.91;;;12.73
79632;BMP280;69108;41.120;16.874;2024-01-30T09:56:05;103705.13;;;12.89
79632;BMP280;69108;41.120;16.874;2024-01-30T09:58:33;103705.50;;;13.10
79632;BMP280;69108;41.120;16.874;2024-01-30T10:01:00;103702.31;;;13.54
79632;BMP280;69108;41.120;16.874;2024-01-30T10:03:26;103696.66;;;13.92
79632;BMP280;69108;41.120;16.874;2024-01-30T10:05:55;103691.69;;;14.31
79632;BMP280;69108;41.120;16.874;2024-01-30T10:08:22;103697.84;;;14.57
79632;BMP280;69108;41.120;16.874;2024-01-30T10:10:49;103697.84;;;14.57
79632;BMP280;69108;41.120;16.874;2024-01-30T10:13:16;103694.88;;;14.69
79632;BMP280;69108;41.120;16.874;2024-01-30T10:15:43;103687.34;;;14.59
79632;BMP280;69108;41.120;16.874;2024-01-30T10:18:10;103688.19;;;14.63
79632;BMP280;69108;41.120;16.874;2024-01-30T10:20:39;103688.66;;;14.72
79632;BMP280;69108;41.120;16.874;2024-01-30T10:23:07;103683.19;;;14.69
79632;BMP280;69108;41.120;16.874;2024-01-30T10:25:33;103682.41;;;14.68
79632;BMP280;69108;41.120;16.874;2024-01-30T10:28:01;103680.66;;;14.86
79632;BMP280;69108;41.120;16.874;2024-01-30T10:30:28;103683.94;;;15.13
79632;BMP280;69108;41.120;16.874;2024-01-30T10:32:54;103689.63;;;15.45
79632;BMP280;69108;41.120;16.874;2024-01-30T10:35:21;103683.13;;;15.67
79632;BMP280;69108;41.120;16.874;2024-01-30T10:37:48;103677.88;;;16.09
79632;BMP280;69108;41.120;16.874;2024-01-30T10:40:16;103669.78;;;16.51
79632;BMP280;69108;41.120;16.874;2024-01-30T10:42:45;103675.25;;;16.58
79632;BMP280;69108;41.120;16.874;2024-01-30T10:45:13;103677.97;;;16.44
79632;BMP280;69108;41.120;16.874;2024-01-30T10:47:43;103670.47;;;16.06
79632;BMP280;69108;41.120;16.874;2024-01-30T10:50:10;103674.47;;;15.51
79632;BMP280;69108;41.120;16.874;2024-01-30T10:52:38;103663.81;;;15.21
79632;BMP280;69108;41.120;16.874;2024-01-30T10:55:07;103669.69;;;14.79
79632;BMP280;69108;41.120;16.874;2024-01-30T10:57:36;103657.22;;;14.42
79632;BMP280;69108;41.120;16.874;2024-01-30T11:00:06;103659.63;;;14.10
79632;BMP280;69108;41.120;16.874;2024-01-30T11:02:40;103658.09;;;13.83
79632;BMP280;69108;41.120;16.874;2024-01-30T11:05:08;103659.56;;;13.77
79632;BMP280;69108;41.120;16.874;2024-01-30T11:07:35;103653.53;;;13.61
79632;BMP280;69108;41.120;16.874;2024-01-30T11:10:03;103654.41;;;13.42
79632;BMP280;69108;41.120;16.874;2024-01-30T11:12:31;103648.84;;;13.09
79632;BMP280;69108;41.120;16.874;2024-01-30T11:15:05;103651.03;;;12.77
79632;BMP280;69108;41.120;16.874;2024-01-30T11:17:43;103641.50;;;12.64
79632;BMP280;69108;41.120;16.874;2024-01-30T11:20:10;103635.72;;;12.46
79632;BMP280;69108;41.120;16.874;2024-01-30T11:22:41;103636.44;;;12.24
79632;BMP280;69108;41.120;16.874;2024-01-30T11:25:11;103628.25;;;12.02
79632;BMP280;69108;41.120;16.874;2024-01-30T11:27:39;103633.78;;;11.90
79632;BMP280;69108;41.120;16.874;2024-01-30T11:30:08;103631.38;;;11.69
79632;BMP280;69108;41.120;16.874;2024-01-30T11:32:35;103630.19;;;11.67
79632;BMP280;69108;41.120;16.874;2024-01-30T11:35:03;103617.94;;;11.73
79632;BMP280;69108;41.120;16.874;2024-01-30T11:37:31;103621.34;;;11.70
79632;BMP280;69108;41.120;16.874;2024-01-30T11:39:58;103618.22;;;11.68
79632;BMP280;69108;41.120;16.874;2024-01-30T11:42:26;103602.09;;;11.55
79632;BMP280;69108;41.120;16.874;2024-01-30T11:44:53;103614.31;;;11.65
79632;BMP280;69108;41.120;16.874;2024-01-30T11:47:22;103607.31;;;11.83
79632;BMP280;69108;41.120;16.874;2024-01-30T11:49:49;103607.44;;;11.87
79632;BMP280;69108;41.120;16.874;2024-01-30T11:52:16;103611.13;;;11.98
79632;BMP280;69108;41.120;16.874;2024-01-30T11:54:43;103604.72;;;12.06
79632;BMP280;69108;41.120;16.874;2024-01-30T11:57:10;103602.47;;;12.08
79632;BMP280;69108;41.120;16.874;2024-01-30T11:59:37;103597.38;;;12.06
79632;BMP280;69108;41.120;16.874;2024-01-30T12:02:04;103599.38;;;12.09
79632;BMP280;69108;41.120;16.874;2024-01-30T12:04:32;103600.72;;;12.00
79632;BMP280;69108;41.120;16.874;2024-01-30T12:06:59;103600.38;;;12.01
79632;BMP280;69108;41.120;16.874;2024-01-30T12:09:26;103592.75;;;12.07
79632;BMP280;69108;41.120;16.874;2024-01-30T12:11:53;103590.97;;;12.14
79632;BMP280;69108;41.120;16.874;2024-01-30T12:14:20;103590.59;;;12.35
79632;BMP280;69108;41.120;16.874;2024-01-30T12:16:50;103590.19;;;12.56
79632;BMP280;69108;41.120;16.874;2024-01-30T12:19:23;103586.63;;;12.71
79632;BMP280;69108;41.120;16.874;2024-01-30T12:21:55;103585.63;;;12.82
79632;BMP280;69108;41.120;16.874;2024-01-30T12:24:24;103585.75;;;12.89
79632;BMP280;69108;41.120;16.874;2024-01-30T12:26:50;103583.09;;;12.93
79632;BMP280;69108;41.120;16.874;2024-01-30T12:29:20;103572.31;;;12.96
79632;BMP280;69108;41.120;16.874;2024-01-30T12:31:47;103574.31;;;13.03
79632;BMP280;69108;41.120;16.874;2024-01-30T12:34:14;103576.31;;;13.06
79632;BMP280;69108;41.120;16.874;2024-01-30T12:36:42;103574.50;;;13.13
79632;BMP280;69108;41.120;16.874;2024-01-30T12:39:12;103569.50;;;13.15
79632;BMP280;69108;41.120;16.874;2024-01-30T12:44:22;103561.03;;;13.20
79632;BMP280;69108;41.120;16.874;2024-01-30T12:46:47;103571.09;;;13.20
79632;BMP280;69108;41.120;16.874;2024-01-30T12:49:14;103561.03;;;13.20
79632;BMP280;69108;41.120;16.874;2024-01-30T12:51:43;103563.84;;;13.01
79632;BMP280;69108;41.120;16.874;2024-01-30T12:54:12;103556.50;;;13.05
79632;BMP280;69108;41.120;16.874;2024-01-30T12:56:51;103555.16;;;12.92
79632;BMP280;69108;41.120;16.874;2024-01-30T12:59:18;103557.97;;;12.99
79632;BMP280;69108;41.120;16.874;2024-01-30T13:01:45;103557.22;;;12.99
79632;BMP280;69108;41.120;16.874;2024-01-30T13:04:12;103553.66;;;12.95
79632;BMP280;69108;41.120;16.874;2024-01-30T13:06:40;103555.25;;;12.99
79632;BMP280;69108;41.120;16.874;2024-01-30T13:09:06;103554.59;;;13.06
79632;BMP280;69108;41.120;16.874;2024-01-30T13:11:35;103556.97;;;13.07
79632;BMP280;69108;41.120;16.874;2024-01-30T13:14:02;103558.09;;;13.06
79632;BMP280;69108;41.120;16.874;2024-01-30T13:16:29;103550.75;;;13.07
79632;BMP280;69108;41.120;16.874;2024-01-30T13:18:56;103559.22;;;13.05
79632;BMP280;69108;41.120;16.874;2024-01-30T13:21:22;103556.50;;;13.05
79632;BMP280;69108;41.120;16.874;2024-01-30T13:23:49;103543.66;;;12.99
79632;BMP280;69108;41.120;16.874;2024-01-30T13:26:18;103548.22;;;12.95
79632;BMP280;69108;41.120;16.874;2024-01-30T13:28:47;103547.28;;;12.84
79632;BMP280;69108;41.120;16.874;2024-01-30T13:31:14;103548.88;;;12.85
79632;BMP280;69108;41.120;16.874;2024-01-30T13:33:41;103553.00;;;12.79
79632;BMP280;69108;41.120;16.874;2024-01-30T13:36:08;103548.75;;;12.78
79632;BMP280;69108;41.120;16.874;2024-01-30T13:38:35;103550.59;;;12.74
79632;BMP280;69108;41.120;16.874;2024-01-30T13:41:02;103551.34;;;12.71
79632;BMP280;69108;41.120;16.874;2024-01-30T13:43:29;103546.97;;;12.66
79632;BMP280;69108;41.120;16.874;2024-01-30T13:45:57;103551.63;;;12.66
79632;BMP280;69108;41.120;16.874;2024-01-30T13:48:24;103554.31;;;12.66
79632;BMP280;69108;41.120;16.874;2024-01-30T13:50:51;103557.13;;;12.69
79632;BMP280;69108;41.120;16.874;2024-01-30T13:53:18;103564.84;;;12.67